Time;durP1;ratioP1;P1;durP2;ratioP2;P2;SDS_P1;SDS_P2;PMS_P1;PMS_P2;Temp;Humidity;BMP_temperature;BMP_pressure;BME280_temperature;BME280_humidity;BME280_pressure;Samples;Min_cycle;Max_cycle;Signal;HPM_P1;HPM_P2
2022/03/23 00:01:58;;;;;;;4.10;3.70;;;;;;;;;;7300645;19;140549;-78
2022/03/23 00:04:26;;;;;;;4.82;3.85;;;;;;;;;;7304288;19;140668;-78
2022/03/23 00:06:53;;;;;;;4.38;3.53;;;;;;;;;;7299545;19;140939;-78
2022/03/23 00:09:20;;;;;;;4.30;3.50;;;;;;;;;;7309763;19;140964;-78
2022/03/23 00:12:00;;;;;;;3.80;3.50;;;;;;;;;;7309355;19;140489;-78
2022/03/23 00:14:29;;;;;;;4.07;3.67;;;;;;;;;;7309051;19;140776;-78
2022/03/23 00:16:57;;;;;;;4.03;3.38;;;;;;;;;;7306780;19;140733;-78
2022/03/23 00:19:24;;;;;;;3.80;3.50;;;;;;;;;;7309101;19;141122;-78
2022/03/23 00:21:52;;;;;;;4.15;3.75;;;;;;;;;;7306574;19;140271;-78
2022/03/23 00:24:19;;;;;;;3.70;3.33;;;;;;;;;;7307221;19;141039;-78
2022/03/23 00:26:46;;;;;;;4.10;3.70;;;;;;;;;;7306140;19;142527;-78
2022/03/23 00:29:13;;;;;;;4.28;3.40;;;;;;;;;;7304745;19;142651;-77
2022/03/23 00:31:40;;;;;;;3.53;3.22;;;;;;;;;;7306664;19;140681;-78
2022/03/23 00:34:07;;;;;;;4.05;3.53;;;;;;;;;;7309184;19;140683;-78
2022/03/23 00:36:35;;;;;;;4.10;3.42;;;;;;;;;;7305081;19;140630;-78
2022/03/23 00:39:02;;;;;;;3.75;3.33;;;;;;;;;;7307877;19;141378;-78
2022/03/23 00:41:30;;;;;;;3.70;3.25;;;;;;;;;;7311446;19;140432;-78
2022/03/23 00:44:00;;;;;;;4.75;3.67;;;;;;;;;;7305511;19;140967;-78
2022/03/23 00:46:27;;;;;;;4.20;3.80;;;;;;;;;;7305683;19;140537;-78
2022/03/23 00:48:54;;;;;;;4.20;3.30;;;;;;;;;;7306012;19;141555;-78
2022/03/23 00:51:21;;;;;;;3.72;3.35;;;;;;;;;;7304982;19;140936;-77
2022/03/23 00:53:48;;;;;;;3.45;3.15;;;;;;;;;;7305871;19;141075;-78
2022/03/23 00:56:15;;;;;;;4.13;3.30;;;;;;;;;;7304665;19;141043;-78
2022/03/23 00:58:42;;;;;;;3.50;3.20;;;;;;;;;;7305756;19;141828;-78
2022/03/23 01:01:11;;;;;;;3.53;3.22;;;;;;;;;;7305859;19;140919;-77
2022/03/23 01:03:39;;;;;;;3.58;3.28;;;;;;;;;;7306822;19;140582;-78
2022/03/23 01:06:08;;;;;;;3.20;2.90;;;;;;;;;;7306561;19;140936;-78
2022/03/23 01:08:35;;;;;;;4.22;3.33;;;;;;;;;;7305018;19;141967;-79
2022/03/23 01:11:02;;;;;;;3.95;3.22;;;;;;;;;;7304967;19;140804;-78
2022/03/23 01:13:29;;;;;;;3.67;3.33;;;;;;;;;;7304171;19;140550;-78
2022/03/23 01:15:56;;;;;;;3.63;3.00;;;;;;;;;;7304022;19;140982;-78
2022/03/23 01:18:23;;;;;;;3.92;3.20;;;;;;;;;;7303964;19;141883;-78
2022/03/23 01:20:51;;;;;;;3.67;3.22;;;;;;;;;;7304807;19;140663;-78
2022/03/23 01:23:18;;;;;;;3.70;3.40;;;;;;;;;;7304727;19;140769;-78
2022/03/23 01:25:45;;;;;;;3.50;3.20;;;;;;;;;;7304480;19;141748;-78
2022/03/23 01:28:13;;;;;;;3.13;2.83;;;;;;;;;;7305300;19;140976;-78
2022/03/23 01:30:40;;;;;;;3.05;2.80;;;;;;;;;;7305822;19;140894;-78
2022/03/23 01:33:07;;;;;;;3.67;3.25;;;;;;;;;;7302170;19;141062;-78
2022/03/23 01:35:34;;;;;;;3.72;3.30;;;;;;;;;;7303169;19;141728;-78
2022/03/23 01:38:01;;;;;;;3.45;3.15;;;;;;;;;;7304255;19;140911;-78
2022/03/23 01:40:28;;;;;;;3.85;3.28;;;;;;;;;;7305738;19;140771;-79
2022/03/23 01:42:55;;;;;;;3.35;3.05;;;;;;;;;;7303073;19;140767;-78
2022/03/23 01:45:22;;;;;;;3.40;3.10;;;;;;;;;;7304084;19;141384;-78
2022/03/23 01:47:49;;;;;;;3.75;2.80;;;;;;;;;;7303559;19;140678;-77
2022/03/23 01:50:17;;;;;;;3.25;2.95;;;;;;;;;;7303083;19;140986;-77
2022/03/23 01:52:44;;;;;;;3.45;3.00;;;;;;;;;;7302518;19;140825;-78
2022/03/23 01:55:13;;;;;;;3.13;2.80;;;;;;;;;;7300778;19;140754;-78
2022/03/23 01:57:43;;;;;;;2.83;2.63;;;;;;;;;;7302232;19;140823;-78
2022/03/23 02:00:11;;;;;;;3.13;2.83;;;;;;;;;;7303153;19;140608;-78
2022/03/23 02:02:38;;;;;;;3.33;2.88;;;;;;;;;;7303201;19;140578;-78
2022/03/23 02:05:06;;;;;;;4.00;3.00;;;;;;;;;;7302395;19;140535;-78
2022/03/23 02:07:33;;;;;;;3.40;2.90;;;;;;;;;;7301430;19;142437;-79
2022/03/23 02:10:00;;;;;;;3.38;2.97;;;;;;;;;;7301145;19;140677;-78
2022/03/23 02:12:30;;;;;;;3.35;2.72;;;;;;;;;;7301883;19;140817;-79
2022/03/23 02:14:58;;;;;;;3.17;2.80;;;;;;;;;;7302307;19;141580;-78
2022/03/23 02:17:25;;;;;;;3.22;2.85;;;;;;;;;;7301546;19;141984;-78
2022/03/23 02:19:52;;;;;;;3.35;3.05;;;;;;;;;;7301999;19;140595;-78
2022/03/23 02:22:19;;;;;;;4.32;3.10;;;;;;;;;;7303248;19;141175;-78
2022/03/23 02:24:50;;;;;;;3.15;2.85;;;;;;;;;;7302310;19;141220;-78
2022/03/23 02:27:18;;;;;;;3.40;3.10;;;;;;;;;;7300178;19;141359;-77
2022/03/23 02:29:45;;;;;;;3.30;3.00;;;;;;;;;;7300992;19;140527;-78
2022/03/23 02:32:13;;;;;;;3.00;2.70;;;;;;;;;;7302612;19;140868;-78
2022/03/23 02:34:40;;;;;;;3.13;2.90;;;;;;;;;;7300152;19;140904;-77
2022/03/23 02:37:07;;;;;;;3.15;2.85;;;;;;;;;;7301032;19;140615;-78
2022/03/23 02:39:34;;;;;;;2.70;2.50;;;;;;;;;;7300083;19;140651;-78
2022/03/23 02:42:02;;;;;;;3.17;2.88;;;;;;;;;;7299845;19;141016;-78
2022/03/23 02:44:29;;;;;;;3.67;2.85;;;;;;;;;;7299975;19;141165;-78
2022/03/23 02:46:56;;;;;;;3.20;2.90;;;;;;;;;;7301871;19;142262;-78
2022/03/23 02:49:24;;;;;;;3.13;2.83;;;;;;;;;;7299808;19;140829;-78
2022/03/23 02:51:58;;;;;;;2.55;2.35;;;;;;;;;;7301454;19;140699;-78
2022/03/23 03:02:50;;;;;;;2.60;2.40;;;;;;;;;;7300243;19;140822;-78
2022/03/23 03:05:17;;;;;;;3.13;2.83;;;;;;;;;;7300525;19;142645;-77
2022/03/23 03:10:33;;;;;;;2.95;2.65;;;;;;;;;;7300258;19;140703;-77
2022/03/23 03:13:00;;;;;;;3.27;2.67;;;;;;;;;;7300080;19;141641;-77
2022/03/23 03:15:27;;;;;;;2.58;2.38;;;;;;;;;;7300652;19;141815;-77
2022/03/23 03:17:57;;;;;;;2.70;2.50;;;;;;;;;;7300907;19;142584;-77
2022/03/23 03:20:24;;;;;;;3.00;2.47;;;;;;;;;;7299673;19;140827;-77
2022/03/23 03:22:52;;;;;;;2.55;2.35;;;;;;;;;;7300202;19;140662;-77
2022/03/23 03:25:20;;;;;;;2.90;2.70;;;;;;;;;;7298813;19;141171;-77
2022/03/23 03:27:53;;;;;;;2.92;2.58;;;;;;;;;;7300643;19;140730;-77
2022/03/23 03:30:23;;;;;;;3.47;3.00;;;;;;;;;;7301060;19;141032;-77
2022/03/23 03:32:55;;;;;;;2.45;2.25;;;;;;;;;;7298884;19;140747;-78
2022/03/23 03:35:23;;;;;;;2.95;2.70;;;;;;;;;;7299100;19;141776;-77
2022/03/23 03:37:50;;;;;;;2.78;2.50;;;;;;;;;;7300132;19;140929;-77
2022/03/23 03:40:17;;;;;;;2.88;2.67;;;;;;;;;;7300849;19;140741;-78
2022/03/23 03:42:44;;;;;;;2.80;2.60;;;;;;;;;;7306214;19;140913;-79
2022/03/23 03:45:11;;;;;;;2.55;2.35;;;;;;;;;;7307985;19;141313;-77
2022/03/23 03:47:38;;;;;;;3.08;2.60;;;;;;;;;;7307298;19;141964;-78
2022/03/23 03:50:05;;;;;;;2.85;2.63;;;;;;;;;;7307102;19;140702;-78
2022/03/23 03:52:32;;;;;;;2.72;2.50;;;;;;;;;;7304756;19;140813;-77
2022/03/23 03:54:59;;;;;;;2.95;2.65;;;;;;;;;;7307071;19;141741;-77
2022/03/23 03:57:26;;;;;;;2.80;2.60;;;;;;;;;;7308580;19;142580;-77
2022/03/23 03:59:54;;;;;;;2.58;2.30;;;;;;;;;;7307200;19;140912;-78
2022/03/23 04:02:21;;;;;;;3.13;2.83;;;;;;;;;;7307637;19;140641;-78
2022/03/23 04:04:48;;;;;;;2.70;2.45;;;;;;;;;;7305962;19;141390;-78
2022/03/23 04:07:15;;;;;;;2.60;2.40;;;;;;;;;;7304753;19;141968;-78
2022/03/23 04:09:42;;;;;;;3.05;2.63;;;;;;;;;;7307217;19;140646;-79
2022/03/23 04:12:09;;;;;;;2.60;2.40;;;;;;;;;;7306196;19;140742;-78
2022/03/23 04:14:38;;;;;;;2.45;2.25;;;;;;;;;;7303580;19;140684;-78
2022/03/23 04:17:05;;;;;;;2.78;2.58;;;;;;;;;;7305815;19;140758;-78
2022/03/23 04:19:32;;;;;;;2.40;2.20;;;;;;;;;;7305411;19;141151;-78
2022/03/23 04:21:59;;;;;;;2.60;2.40;;;;;;;;;;7305990;19;140584;-78
2022/03/23 04:24:27;;;;;;;2.47;2.28;;;;;;;;;;7305730;19;140901;-78
2022/03/23 04:26:54;;;;;;;2.50;2.30;;;;;;;;;;7305660;19;142607;-77
2022/03/23 04:29:24;;;;;;;2.40;2.20;;;;;;;;;;7304203;19;140823;-77
2022/03/23 04:31:51;;;;;;;2.43;2.23;;;;;;;;;;7304436;19;140658;-77
2022/03/23 04:34:19;;;;;;;2.42;2.22;;;;;;;;;;7304203;19;141564;-77
2022/03/23 04:36:47;;;;;;;2.55;2.20;;;;;;;;;;7304234;19;143067;-78
2022/03/23 04:39:14;;;;;;;2.33;2.13;;;;;;;;;;7306474;19;141055;-77
2022/03/23 04:41:41;;;;;;;2.50;2.30;;;;;;;;;;7303874;19;140410;-77
2022/03/23 04:44:08;;;;;;;2.63;2.40;;;;;;;;;;7303713;19;141241;-77
2022/03/23 04:46:35;;;;;;;3.17;2.20;;;;;;;;;;7306078;19;140716;-78
2022/03/23 04:49:02;;;;;;;2.42;2.22;;;;;;;;;;7306300;19;141267;-77
2022/03/23 04:51:31;;;;;;;2.35;2.15;;;;;;;;;;7303056;19;140754;-77
2022/03/23 04:53:58;;;;;;;2.65;2.30;;;;;;;;;;7303995;19;140933;-77
2022/03/23 04:56:25;;;;;;;2.40;2.20;;;;;;;;;;7304111;19;142827;-78
2022/03/23 04:58:54;;;;;;;2.85;2.22;;;;;;;;;;7304130;19;140633;-77
2022/03/23 05:01:21;;;;;;;2.53;2.22;;;;;;;;;;7305295;19;141515;-77
2022/03/23 05:03:50;;;;;;;2.42;2.22;;;;;;;;;;7304537;19;140647;-77
2022/03/23 05:06:17;;;;;;;2.50;2.30;;;;;;;;;;7304208;19;140865;-77
2022/03/23 05:08:44;;;;;;;2.35;2.15;;;;;;;;;;7302374;19;140662;-77
2022/03/23 05:11:12;;;;;;;2.50;2.30;;;;;;;;;;7303541;19;141041;-77
2022/03/23 05:13:40;;;;;;;2.58;2.38;;;;;;;;;;7303961;19;140899;-78
2022/03/23 05:16:07;;;;;;;2.28;2.08;;;;;;;;;;7303428;19;141962;-78
2022/03/23 05:18:34;;;;;;;2.47;2.28;;;;;;;;;;7303726;19;140671;-78
2022/03/23 05:21:02;;;;;;;3.22;2.22;;;;;;;;;;7304401;19;140606;-78
2022/03/23 05:23:29;;;;;;;2.65;2.33;;;;;;;;;;7303967;19;140650;-78
2022/03/23 05:25:56;;;;;;;2.47;2.28;;;;;;;;;;7303365;19;142619;-77
2022/03/23 05:28:29;;;;;;;1.92;1.83;;;;;;;;;;7303498;19;140834;-77
2022/03/23 05:30:56;;;;;;;2.50;2.30;;;;;;;;;;7302070;19;140674;-77
2022/03/23 05:33:26;;;;;;;3.47;2.45;;;;;;;;;;7301342;19;141335;-79
2022/03/23 05:36:01;;;;;;;2.55;2.10;;;;;;;;;;7305047;19;141520;-79
2022/03/23 05:38:28;;;;;;;2.35;2.15;;;;;;;;;;7303524;19;140682;-78
2022/03/23 05:40:56;;;;;;;2.20;2.00;;;;;;;;;;7304370;19;140613;-78
2022/03/23 05:43:30;;;;;;;2.40;2.20;;;;;;;;;;7302156;19;140664;-78
2022/03/23 05:46:02;;;;;;;2.40;2.20;;;;;;;;;;7301822;19;143604;-77
2022/03/23 05:48:30;;;;;;;2.20;2.00;;;;;;;;;;7301472;19;140565;-77
2022/03/23 05:51:00;;;;;;;2.20;2.00;;;;;;;;;;7302596;19;140666;-77
2022/03/23 05:53:27;;;;;;;2.53;2.33;;;;;;;;;;7301578;19;141179;-77
2022/03/23 05:55:54;;;;;;;2.30;2.10;;;;;;;;;;7301251;19;141268;-80
2022/03/23 05:58:22;;;;;;;2.63;2.40;;;;;;;;;;7302308;19;141133;-77
2022/03/23 06:00:49;;;;;;;2.40;2.20;;;;;;;;;;7303255;19;140782;-79
2022/03/23 06:03:16;;;;;;;3.72;2.20;;;;;;;;;;7302438;19;141736;-82
2022/03/23 06:29:35;;;;;;;2.58;2.30;;;;;;;;;;7339792;19;140793;-84
2022/03/23 06:32:05;;;;;;;2.92;2.40;;;;;;;;;;7335786;19;141522;-82
2022/03/23 06:34:34;;;;;;;4.07;2.40;;;;;;;;;;7334358;19;140879;-83
2022/03/23 06:37:02;;;;;;;3.17;2.03;;;;;;;;;;7333862;19;141990;-84
2022/03/23 06:39:29;;;;;;;4.65;2.17;;;;;;;;;;7334872;19;141120;-84
2022/03/23 06:41:56;;;;;;;2.47;2.28;;;;;;;;;;7334307;19;140673;-84
2022/03/23 06:44:24;;;;;;;2.67;2.35;;;;;;;;;;7333146;19;141224;-84
2022/03/23 06:46:51;;;;;;;2.50;2.30;;;;;;;;;;7334216;19;142014;-84
2022/03/23 06:49:18;;;;;;;3.35;2.00;;;;;;;;;;7332913;19;141410;-84
2022/03/23 06:51:45;;;;;;;2.33;2.13;;;;;;;;;;7332069;19;140650;-84
2022/03/23 06:54:12;;;;;;;2.80;2.33;;;;;;;;;;7331352;19;141445;-85
2022/03/23 06:56:39;;;;;;;2.22;2.03;;;;;;;;;;7331650;19;141315;-84
2022/03/23 06:59:06;;;;;;;2.80;2.05;;;;;;;;;;7337608;19;140494;-85
2022/03/23 07:01:33;;;;;;;2.78;2.00;;;;;;;;;;7333377;19;140657;-84
2022/03/23 07:04:00;;;;;;;3.40;2.50;;;;;;;;;;7332145;19;142000;-84
2022/03/23 07:06:28;;;;;;;2.38;2.17;;;;;;;;;;7333176;19;140747;-85
2022/03/23 07:11:40;;;;;;;2.25;2.05;;;;;;;;;;7333230;19;140660;-84
2022/03/23 07:14:08;;;;;;;2.22;2.00;;;;;;;;;;7331791;19;142383;-84
2022/03/23 07:16:35;;;;;;;2.42;2.22;;;;;;;;;;7333349;19;141426;-84
2022/03/23 07:19:02;;;;;;;2.00;1.85;;;;;;;;;;7331814;19;140770;-85
2022/03/23 07:21:29;;;;;;;2.20;1.92;;;;;;;;;;7333255;19;140677;-85
2022/03/23 07:23:56;;;;;;;1.98;1.83;;;;;;;;;;7332679;19;140938;-85
2022/03/23 07:26:23;;;;;;;2.35;2.10;;;;;;;;;;7332321;19;141335;-86
2022/03/23 07:28:50;;;;;;;2.08;1.98;;;;;;;;;;7331663;19;140995;-87
2022/03/23 07:31:17;;;;;;;2.22;1.80;;;;;;;;;;7333079;19;140545;-87
2022/03/23 07:33:45;;;;;;;2.20;2.00;;;;;;;;;;7332793;19;141953;-85
2022/03/23 07:36:12;;;;;;;2.35;1.98;;;;;;;;;;7333020;19;140858;-86
2022/03/23 07:38:39;;;;;;;2.05;1.85;;;;;;;;;;7328092;19;141395;-87
2022/03/23 07:41:06;;;;;;;2.15;1.95;;;;;;;;;;7304298;19;140843;-87
2022/03/23 07:43:33;;;;;;;2.33;2.13;;;;;;;;;;7304016;19;140587;-86
2022/03/23 07:46:00;;;;;;;2.00;1.90;;;;;;;;;;7304436;19;142362;-86
2022/03/23 07:48:28;;;;;;;2.35;1.92;;;;;;;;;;7303276;19;140766;-87
2022/03/23 07:50:55;;;;;;;1.80;1.70;;;;;;;;;;7300971;19;140746;-87
2022/03/23 07:53:28;;;;;;;2.10;1.90;;;;;;;;;;7304235;19;141526;-87
2022/03/23 07:55:56;;;;;;;2.10;1.90;;;;;;;;;;7303821;19;141384;-86
2022/03/23 07:58:25;;;;;;;2.05;1.80;;;;;;;;;;7303743;19;140651;-86
2022/03/23 08:00:53;;;;;;;2.17;1.97;;;;;;;;;;7303513;19;140577;-87
2022/03/23 08:03:32;;;;;;;2.03;1.83;;;;;;;;;;7300438;19;142513;-86
2022/03/23 08:05:59;;;;;;;2.05;1.95;;;;;;;;;;7303213;19;140745;-86
2022/03/23 08:08:26;;;;;;;2.42;2.00;;;;;;;;;;7304392;19;140537;-87
2022/03/23 08:10:53;;;;;;;2.15;1.95;;;;;;;;;;7302483;19;140619;-89
2022/03/23 08:13:21;;;;;;;2.00;1.90;;;;;;;;;;7303239;19;141935;-89
2022/03/23 08:15:48;;;;;;;1.80;1.70;;;;;;;;;;7303374;19;141345;-87
2022/03/23 08:18:17;;;;;;;2.10;1.90;;;;;;;;;;7304376;19;140757;-88
2022/03/23 08:20:44;;;;;;;2.10;1.90;;;;;;;;;;7302959;19;140468;-88
2022/03/23 08:23:15;;;;;;;2.50;1.90;;;;;;;;;;7303911;19;140871;-73
2022/03/23 08:25:45;;;;;;;1.90;1.80;;;;;;;;;;7302255;19;142754;-76
2022/03/23 08:28:14;;;;;;;2.45;2.08;;;;;;;;;;7302808;19;140497;-78
2022/03/23 08:30:41;;;;;;;2.50;2.30;;;;;;;;;;7303423;19;141442;-78
2022/03/23 08:35:57;;;;;;;3.03;2.20;;;;;;;;;;7300929;19;140586;-80
2022/03/23 08:38:24;;;;;;;2.78;2.00;;;;;;;;;;7302602;19;140738;-80
2022/03/23 08:40:52;;;;;;;2.00;1.90;;;;;;;;;;7301526;19;141088;-81
2022/03/23 08:43:19;;;;;;;4.53;2.20;;;;;;;;;;7302150;19;142201;-80
2022/03/23 08:45:47;;;;;;;2.08;1.73;;;;;;;;;;7302730;19;140860;-81
2022/03/23 08:48:14;;;;;;;3.15;2.13;;;;;;;;;;7302252;19;140473;-81
2022/03/23 08:50:41;;;;;;;3.92;1.98;;;;;;;;;;7298000;19;140707;-81
2022/03/23 08:53:09;;;;;;;2.22;2.03;;;;;;;;;;7301073;19;140766;-81
2022/03/23 08:55:36;;;;;;;2.03;1.90;;;;;;;;;;7301755;19;140889;-82
2022/03/23 08:58:03;;;;;;;1.92;1.83;;;;;;;;;;7301520;19;141144;-81
2022/03/23 09:00:30;;;;;;;2.38;2.13;;;;;;;;;;7301688;19;140440;-80
2022/03/23 09:02:58;;;;;;;2.88;2.00;;;;;;;;;;7301487;19;140686;-80
2022/03/23 09:05:25;;;;;;;2.38;2.00;;;;;;;;;;7301368;19;142677;-89
2022/03/23 09:07:52;;;;;;;2.10;1.90;;;;;;;;;;7300041;19;141056;-82
2022/03/23 09:10:23;;;;;;;2.42;2.22;;;;;;;;;;7299794;19;140744;-82
2022/03/23 09:12:50;;;;;;;2.25;2.05;;;;;;;;;;7299475;19;141209;-80
2022/03/23 09:15:35;;;;;;;2.08;1.90;;;;;;;;;;7299825;19;141141;-80
2022/03/23 09:18:02;;;;;;;2.10;1.90;;;;;;;;;;7301089;19;140621;-79
2022/03/23 09:20:30;;;;;;;2.38;1.98;;;;;;;;;;7299702;19;141340;-80
2022/03/23 09:23:00;;;;;;;3.00;2.00;;;;;;;;;;7300368;19;140891;-79
2022/03/23 09:25:27;;;;;;;2.00;1.90;;;;;;;;;;7298773;19;142203;-79
2022/03/23 09:27:54;;;;;;;2.20;2.10;;;;;;;;;;7299950;19;140820;-80
2022/03/23 09:30:21;;;;;;;2.10;1.80;;;;;;;;;;7300632;19;140832;-79
2022/03/23 09:32:49;;;;;;;2.20;2.00;;;;;;;;;;7301711;19;140651;-79
2022/03/23 09:35:17;;;;;;;1.90;1.80;;;;;;;;;;7301444;19;142568;-79
2022/03/23 09:37:48;;;;;;;1.70;1.60;;;;;;;;;;7301714;19;140635;-78
2022/03/23 09:40:34;;;;;;;2.22;1.95;;;;;;;;;;7300885;19;140770;-79
2022/03/23 09:43:08;;;;;;;2.45;2.00;;;;;;;;;;7302687;19;141200;-80
2022/03/23 09:45:46;;;;;;;2.10;1.90;;;;;;;;;;7299883;19;141957;-80
2022/03/23 09:48:16;;;;;;;1.92;1.73;;;;;;;;;;7302519;19;140681;-81
2022/03/23 09:50:45;;;;;;;1.75;1.65;;;;;;;;;;7300700;19;140731;-81
2022/03/23 09:53:12;;;;;;;2.28;1.88;;;;;;;;;;7301693;19;141172;-81
2022/03/23 09:55:42;;;;;;;1.90;1.70;;;;;;;;;;7299983;19;141863;-80
2022/03/23 09:58:10;;;;;;;2.50;1.67;;;;;;;;;;7301938;19;140750;-81
2022/03/23 10:00:38;;;;;;;2.00;1.90;;;;;;;;;;7301859;19;140669;-80
2022/03/23 10:03:09;;;;;;;1.90;1.80;;;;;;;;;;7300178;19;140766;-80
2022/03/23 10:05:39;;;;;;;;;;;;;;;;;;7299149;19;142065;-80
2022/03/23 10:11:57;;;;;;;1.88;1.75;;;;;;;;;;7297050;19;140890;-80
2022/03/23 10:14:46;;;;;;;1.98;1.88;;;;;;;;;;7297728;19;140918;-81
2022/03/23 10:17:22;;;;;;;2.08;1.90;;;;;;;;;;7297513;19;140928;-80
2022/03/23 10:19:51;;;;;;;1.90;1.80;;;;;;;;;;7296575;19;140855;-80
2022/03/23 10:22:18;;;;;;;2.10;2.00;;;;;;;;;;7298088;19;140955;-81
2022/03/23 10:24:46;;;;;;;1.80;1.70;;;;;;;;;;7296593;19;141928;-81
2022/03/23 10:27:14;;;;;;;1.73;1.63;;;;;;;;;;7296346;19;142010;-80
2022/03/23 10:29:46;;;;;;;2.00;1.80;;;;;;;;;;7297577;19;140701;-81
2022/03/23 10:32:13;;;;;;;2.25;1.70;;;;;;;;;;7297523;19;141542;-80
2022/03/23 10:34:45;;;;;;;1.85;1.75;;;;;;;;;;7299661;19;141132;-81
2022/03/23 10:37:13;;;;;;;2.03;1.83;;;;;;;;;;7299390;19;141902;-81
2022/03/23 10:39:43;;;;;;;1.77;1.67;;;;;;;;;;7300768;19;140696;-80
2022/03/23 10:42:13;;;;;;;1.65;1.52;;;;;;;;;;7298404;19;140862;-81
2022/03/23 10:44:41;;;;;;;1.87;1.73;;;;;;;;;;7299555;19;142040;-87
2022/03/23 10:47:20;;;;;;;1.73;1.60;;;;;;;;;;7299258;19;140856;-78
2022/03/23 10:49:47;;;;;;;2.50;1.55;;;;;;;;;;7299328;19;140947;-83
2022/03/23 10:52:28;;;;;;;;;;;;;;;;;;;;;
2022/03/23 10:55:10;;;;;;;1.63;1.52;;;;;;;;;;7299121;19;144836;-77
2022/03/23 11:01:09;;;;;;;2.10;1.77;;;;;;;;;;7298521;19;141654;-78
2022/03/23 11:03:38;;;;;;;1.73;1.63;;;;;;;;;;7300213;19;140841;-77
2022/03/23 11:06:14;;;;;;;1.83;1.73;;;;;;;;;;7300095;19;141993;-77
2022/03/23 11:08:46;;;;;;;1.80;1.70;;;;;;;;;;7299502;19;142084;-87
2022/03/23 11:16:56;;;;;;;2.28;2.08;;;;;;;;;;7306374;19;142132;-80
2022/03/23 11:19:38;;;;;;;2.22;1.77;;;;;;;;;;7306002;19;141226;-82
2022/03/23 11:22:16;;;;;;;1.77;1.67;;;;;;;;;;7305241;19;140687;-82
2022/03/23 11:24:47;;;;;;;1.70;1.60;;;;;;;;;;7308782;19;140757;-85
2022/03/23 11:27:17;;;;;;;1.63;1.52;;;;;;;;;;7309638;19;140677;-88
2022/03/23 11:29:47;;;;;;;1.70;1.60;;;;;;;;;;7304301;19;143206;-86
2022/03/23 11:32:15;;;;;;;1.65;1.55;;;;;;;;;;7310192;19;140703;-85
2022/03/23 11:34:50;;;;;;;1.92;1.83;;;;;;;;;;7315109;19;140519;-95
2022/03/23 11:37:21;;;;;;;1.77;1.67;;;;;;;;;;7305625;19;140478;-87
2022/03/23 11:39:48;;;;;;;1.63;1.52;;;;;;;;;;7304880;19;141145;-83
2022/03/23 11:42:19;;;;;;;2.00;1.80;;;;;;;;;;7304992;19;141038;-85
2022/03/23 11:44:52;;;;;;;1.98;1.83;;;;;;;;;;7307111;19;141225;-87
2022/03/23 11:50:29;;;;;;;1.70;1.60;;;;;;;;;;7282865;19;143016;-87
2022/03/23 11:53:06;;;;;;;1.67;1.58;;;;;;;;;;7306435;19;140562;-86
2022/03/23 11:55:37;;;;;;;1.63;1.52;;;;;;;;;;7307039;19;140617;-85
2022/03/23 11:58:05;;;;;;;1.80;1.70;;;;;;;;;;7301989;19;141844;-84
2022/03/23 12:00:40;;;;;;;1.80;1.70;;;;;;;;;;7307028;19;141283;-88
2022/03/23 12:03:26;;;;;;;1.80;1.70;;;;;;;;;;7307310;19;140554;-89
2022/03/23 12:05:53;;;;;;;2.13;1.52;;;;;;;;;;7306586;19;140582;-79
2022/03/23 12:08:39;;;;;;;1.60;1.50;;;;;;;;;;7303790;19;141348;-79
2022/03/23 12:11:25;;;;;;;1.70;1.60;;;;;;;;;;7302526;19;141263;-81
2022/03/23 12:13:57;;;;;;;1.75;1.65;;;;;;;;;;7303031;19;140742;-81
2022/03/23 12:16:43;;;;;;;2.97;1.67;;;;;;;;;;7304454;19;140568;-79
2022/03/23 12:19:32;;;;;;;1.70;1.60;;;;;;;;;;7303865;19;140551;-76
2022/03/23 12:22:05;;;;;;;2.05;1.88;;;;;;;;;;7303994;19;140804;-76
2022/03/23 12:24:35;;;;;;;1.92;1.80;;;;;;;;;;7305956;19;140821;-77
2022/03/23 12:27:05;;;;;;;2.00;1.80;;;;;;;;;;7317610;19;140449;-78
2022/03/23 12:29:35;;;;;;;1.80;1.70;;;;;;;;;;7320594;19;140566;-75
2022/03/23 12:32:06;;;;;;;2.17;1.80;;;;;;;;;;7314518;19;141955;-77
2022/03/23 12:34:32;;;;;;;;;;;;;;;;;;7311593;19;140673;-76
2022/03/23 12:37:07;;;;;;;1.70;1.60;;;;;;;;;;7303631;19;140910;-77
2022/03/23 12:39:37;;;;;;;1.90;1.70;;;;;;;;;;7301518;19;140989;-76
2022/03/23 12:42:15;;;;;;;1.50;1.40;;;;;;;;;;7303835;19;141723;-76
2022/03/23 12:44:42;;;;;;;1.67;1.58;;;;;;;;;;7302596;19;140590;-76
2022/03/23 12:47:14;;;;;;;1.58;1.48;;;;;;;;;;7300857;19;140551;-80
2022/03/23 12:58:37;;;;;;;1.70;1.60;;;;;;;;;;7303504;19;140639;-83
2022/03/23 13:01:10;;;;;;;1.77;1.48;;;;;;;;;;7301541;19;141369;-83
2022/03/23 13:03:46;;;;;;;2.05;1.70;;;;;;;;;;7302350;19;141461;-82
2022/03/23 13:06:17;;;;;;;1.60;1.50;;;;;;;;;;7302702;19;141389;-80
2022/03/23 13:11:57;;;;;;;1.60;1.50;;;;;;;;;;7305445;19;140925;-80
2022/03/23 13:15:05;;;;;;;1.90;1.80;;;;;;;;;;7272003;19;142474;31
2022/03/23 13:17:32;;;;;;;1.70;1.60;;;;;;;;;;7301187;19;140562;-80
2022/03/23 13:19:59;;;;;;;1.60;1.50;;;;;;;;;;7302520;19;141140;-81
2022/03/23 13:22:34;;;;;;;1.60;1.50;;;;;;;;;;7301764;19;141161;-80
2022/03/23 13:25:01;;;;;;;1.60;1.50;;;;;;;;;;7302780;19;141997;-81
2022/03/23 13:30:34;;;;;;;1.60;1.50;;;;;;;;;;7296146;19;141641;-80
2022/03/23 13:33:01;;;;;;;1.77;1.67;;;;;;;;;;7303382;19;140819;-79
2022/03/23 13:35:28;;;;;;;1.60;1.50;;;;;;;;;;7302292;19;141269;-79
2022/03/23 13:37:59;;;;;;;1.98;1.80;;;;;;;;;;7300515;19;140647;-81
2022/03/23 13:40:26;;;;;;;;;;;;;;;;;;7302247;19;140678;-80
2022/03/23 13:45:45;;;;;;;2.13;1.58;;;;;;;;;;7302314;19;141853;-81
2022/03/23 13:48:14;;;;;;;1.70;1.60;;;;;;;;;;7301680;19;140669;-81
2022/03/23 13:50:45;;;;;;;1.60;1.50;;;;;;;;;;7302626;19;140573;-81
2022/03/23 13:53:15;;;;;;;1.63;1.50;;;;;;;;;;7301884;19;140479;-82
2022/03/23 13:55:42;;;;;;;1.60;1.50;;;;;;;;;;7297746;19;140836;-80
2022/03/23 13:58:10;;;;;;;1.90;1.80;;;;;;;;;;7301538;19;140635;-77
2022/03/23 14:00:38;;;;;;;1.80;1.70;;;;;;;;;;7300855;19;140795;-77
2022/03/23 14:03:06;;;;;;;1.70;1.60;;;;;;;;;;7300933;19;141729;-78
2022/03/23 14:05:33;;;;;;;1.80;1.70;;;;;;;;;;7301168;19;141423;-75
2022/03/23 14:08:01;;;;;;;3.58;1.77;;;;;;;;;;7301140;19;141420;-79
2022/03/23 14:10:38;;;;;;;1.88;1.77;;;;;;;;;;7299907;19;141610;-79
2022/03/23 14:13:11;;;;;;;2.10;1.90;;;;;;;;;;7301183;19;141169;-79
2022/03/23 14:15:52;;;;;;;1.90;1.80;;;;;;;;;;7301231;19;140853;-78
2022/03/23 14:18:22;;;;;;;;;;;;;;;;;;7300665;19;140685;-78
2022/03/23 14:20:56;;;;;;;2.63;1.60;;;;;;;;;;7300935;19;140620;-78
2022/03/23 14:23:26;;;;;;;2.33;1.55;;;;;;;;;;7299955;19;140589;-76
2022/03/23 14:25:53;;;;;;;1.63;1.52;;;;;;;;;;7300923;19;141648;-78
2022/03/23 14:28:22;;;;;;;1.63;1.52;;;;;;;;;;7301879;19;141152;-78
2022/03/23 14:30:56;;;;;;;1.90;1.80;;;;;;;;;;7301410;19;140642;-79
2022/03/23 14:33:23;;;;;;;1.92;1.80;;;;;;;;;;7300846;19;140881;-78
2022/03/23 14:35:50;;;;;;;1.88;1.73;;;;;;;;;;7299150;19;144017;-77
2022/03/23 14:38:18;;;;;;;1.73;1.63;;;;;;;;;;7300509;19;141141;-80
2022/03/23 14:40:48;;;;;;;1.67;1.58;;;;;;;;;;7301130;19;141201;-79
2022/03/23 14:43:33;;;;;;;1.98;1.63;;;;;;;;;;7300087;19;140740;-79
2022/03/23 14:46:20;;;;;;;2.45;2.03;;;;;;;;;;7300696;19;141357;-78
2022/03/23 14:49:00;;;;;;;1.80;1.70;;;;;;;;;;7300614;19;140619;-79
2022/03/23 14:51:27;;;;;;;1.63;1.52;;;;;;;;;;7307873;19;140522;-78
2022/03/23 14:53:55;;;;;;;1.60;1.50;;;;;;;;;;7308384;19;140716;-79
2022/03/23 14:56:22;;;;;;;1.95;1.85;;;;;;;;;;7306192;19;140737;-78
2022/03/23 14:58:49;;;;;;;1.60;1.50;;;;;;;;;;7306275;19;140901;-78
2022/03/23 15:01:16;;;;;;;1.60;1.50;;;;;;;;;;7307365;19;140823;-79
2022/03/23 15:03:43;;;;;;;1.88;1.70;;;;;;;;;;7307144;19;140697;-79
2022/03/23 15:14:27;;;;;;;1.88;1.77;;;;;;;;;;7308359;19;141333;-78
2022/03/23 15:16:55;;;;;;;1.60;1.50;;;;;;;;;;7304765;19;142708;-78
2022/03/23 15:19:22;;;;;;;2.13;1.80;;;;;;;;;;7307022;19;140878;-79
2022/03/23 15:21:49;;;;;;;1.50;1.40;;;;;;;;;;7306159;19;140703;-78
2022/03/23 15:24:19;;;;;;;1.40;1.30;;;;;;;;;;7306041;19;141137;-78
2022/03/23 15:26:46;;;;;;;1.95;1.55;;;;;;;;;;7306104;19;141549;-77
2022/03/23 15:29:14;;;;;;;1.63;1.52;;;;;;;;;;7306149;19;140841;-77
2022/03/23 15:31:40;;;;;;;1.92;1.80;;;;;;;;;;7304628;19;140810;-77
2022/03/23 15:34:09;;;;;;;1.88;1.77;;;;;;;;;;7305585;19;141851;-77
2022/03/23 15:36:36;;;;;;;2.05;1.70;;;;;;;;;;7303879;19;142296;-77
2022/03/23 15:39:06;;;;;;;1.80;1.70;;;;;;;;;;7304365;19;141277;-77
2022/03/23 15:41:33;;;;;;;2.28;1.88;;;;;;;;;;7304248;19;140825;-77
2022/03/23 15:44:05;;;;;;;1.80;1.70;;;;;;;;;;7305455;19;140984;-77
2022/03/23 15:46:34;;;;;;;1.83;1.73;;;;;;;;;;7302178;19;142021;-77
2022/03/23 15:49:04;;;;;;;1.60;1.50;;;;;;;;;;7303676;19;140791;-77
2022/03/23 15:51:32;;;;;;;1.55;1.45;;;;;;;;;;7302741;19;140755;-77
2022/03/23 15:53:59;;;;;;;1.85;1.75;;;;;;;;;;7302006;19;141171;-77
2022/03/23 15:56:26;;;;;;;1.92;1.60;;;;;;;;;;7302827;19;141543;-77
2022/03/23 15:58:53;;;;;;;2.35;1.80;;;;;;;;;;7302895;19;140794;-77
2022/03/23 16:01:20;;;;;;;2.17;2.00;;;;;;;;;;7302046;19;140691;-77
2022/03/23 16:03:48;;;;;;;1.70;1.60;;;;;;;;;;7304064;19;141615;-77
2022/03/23 16:06:18;;;;;;;1.50;1.40;;;;;;;;;;7302991;19;141398;-77